createdAt,value
2018-02-07T00:00:03.465Z,101060.33
2018-02-07T00:00:27.243Z,101051.59
2018-02-07T00:00:51.068Z,101056.86
2018-02-07T00:01:14.813Z,101051.63
2018-02-07T00:01:38.556Z,101053.81
2018-02-07T00:02:02.004Z,101056.03
2018-02-07T00:02:25.850Z,101052.12
2018-02-07T00:02:49.674Z,101052.55
2018-02-07T00:03:13.636Z,101053.92
2018-02-07T00:03:37.380Z,101050.90
2018-02-07T00:04:01.128Z,101050.06
2018-02-07T00:04:24.281Z,101052.74
2018-02-07T00:04:48.069Z,101046.67
2018-02-07T00:05:11.534Z,101054.98
2018-02-07T00:05:35.302Z,101051.53
2018-02-07T00:05:59.064Z,101050.73
2018-02-07T00:06:24.437Z,101049.02
2018-02-07T00:06:48.208Z,101045.61
2018-02-07T00:07:12.045Z,101060.91
2018-02-07T00:07:35.900Z,101050.03
2018-02-07T00:07:59.990Z,101048.32
2018-02-07T00:08:23.797Z,101046.13
2018-02-07T00:08:47.853Z,101052.73
2018-02-07T00:09:11.624Z,101049.69
2018-02-07T00:09:35.117Z,101046.64
2018-02-07T00:09:58.916Z,101051.45
2018-02-07T00:10:22.953Z,101050.14
2018-02-07T00:10:46.925Z,101048.86
2018-02-07T00:11:10.679Z,101049.31
2018-02-07T00:11:34.502Z,101051.50
2018-02-07T00:11:58.540Z,101060.66
2018-02-07T00:12:22.352Z,101056.79
2018-02-07T00:12:46.497Z,101055.48
2018-02-07T00:13:10.314Z,101056.81
2018-02-07T00:13:34.415Z,101057.30
2018-02-07T00:13:58.189Z,101057.75
2018-02-07T00:14:22.221Z,101056.95
2018-02-07T00:14:45.695Z,101052.59
2018-02-07T00:15:09.503Z,101058.73
2018-02-07T00:15:33.256Z,101057.02
2018-02-07T00:15:57.089Z,101060.52
2018-02-07T00:16:23.088Z,101064.42
2018-02-07T00:16:46.860Z,101060.06
2018-02-07T00:17:10.910Z,101063.11
2018-02-07T00:17:35.059Z,101061.78
2018-02-07T00:17:58.880Z,101059.59
2018-02-07T00:18:22.720Z,101065.28
2018-02-07T00:18:46.788Z,101071.37
2018-02-07T00:19:10.559Z,101061.30
2018-02-07T00:19:34.018Z,101057.80
2018-02-07T00:19:57.760Z,101063.41
2018-02-07T00:20:21.539Z,101062.95
2018-02-07T00:20:45.599Z,101061.22
2018-02-07T00:21:09.350Z,101059.91
2018-02-07T00:21:32.846Z,101062.09
2018-02-07T00:21:56.656Z,101055.98
2018-02-07T00:22:20.404Z,101056.44
2018-02-07T00:22:43.853Z,101059.91
2018-02-07T00:23:07.650Z,101054.67
2018-02-07T00:23:31.421Z,101060.36
2018-02-07T00:23:55.240Z,101062.53
2018-02-07T00:24:18.745Z,101052.94
2018-02-07T00:24:42.497Z,101055.13
2018-02-07T00:25:06.244Z,101059.48
2018-02-07T00:25:30.012Z,101056.86
2018-02-07T00:25:56.336Z,101052.06
2018-02-07T00:26:20.144Z,101053.39
2018-02-07T00:26:44.008Z,101058.62
2018-02-07T00:27:07.617Z,101055.58
2018-02-07T00:27:32.257Z,101054.76
2018-02-07T00:27:55.920Z,101051.71
2018-02-07T00:28:20.345Z,101058.70
2018-02-07T00:28:44.174Z,101054.80
2018-02-07T00:29:07.979Z,101057.85
2018-02-07T00:29:31.724Z,101058.73
2018-02-07T00:29:55.497Z,101059.19
2018-02-07T00:30:18.948Z,101056.19
2018-02-07T00:30:42.956Z,101058.38
2018-02-07T00:31:06.734Z,101059.27
2018-02-07T00:31:30.546Z,101052.31
2018-02-07T00:31:54.550Z,101062.36
2018-02-07T00:32:18.293Z,101056.72
2018-02-07T00:32:42.367Z,101056.27
2018-02-07T00:33:06.181Z,101067.19
2018-02-07T00:33:29.917Z,101058.97
2018-02-07T00:33:53.694Z,101059.82
2018-02-07T00:34:17.471Z,101062.44
2018-02-07T00:34:41.244Z,101059.82
2018-02-07T00:35:05.030Z,101061.53
2018-02-07T00:35:29.129Z,101058.08
2018-02-07T00:35:52.885Z,101057.15
2018-02-07T00:36:16.955Z,101055.84
2018-02-07T00:36:40.708Z,101051.89
2018-02-07T00:37:04.858Z,101058.43
2018-02-07T00:37:28.628Z,101057.13
2018-02-07T00:37:52.097Z,101051.91
2018-02-07T00:38:15.860Z,101054.53
2018-02-07T00:38:39.609Z,101056.29
2018-02-07T00:39:03.298Z,101057.20
2018-02-07T00:39:27.065Z,101056.34
2018-02-07T00:39:50.972Z,101059.42
2018-02-07T00:40:14.713Z,101060.30
2018-02-07T00:40:38.503Z,101053.78
2018-02-07T00:41:02.261Z,101054.23
2018-02-07T00:41:26.430Z,101054.68
2018-02-07T00:41:50.215Z,101053.38
2018-02-07T00:42:14.237Z,101055.62
2018-02-07T00:42:37.978Z,101049.10
2018-02-07T00:43:01.732Z,101053.03
2018-02-07T00:43:25.481Z,101055.67
2018-02-07T00:43:49.285Z,101056.52
2018-02-07T00:44:13.041Z,101053.48
2018-02-07T00:44:36.821Z,101052.58
2018-02-07T00:45:00.920Z,101056.92
2018-02-07T00:45:24.669Z,101056.05
2018-02-07T00:45:48.137Z,101055.59
2018-02-07T00:46:11.941Z,101056.48
2018-02-07T00:46:35.704Z,101069.56
2018-02-07T00:46:59.232Z,101055.59
2018-02-07T00:47:22.976Z,101057.36
2018-02-07T00:47:46.736Z,101056.05
2018-02-07T00:48:10.492Z,101055.17
2018-02-07T00:48:34.549Z,101058.21
2018-02-07T00:48:58.304Z,101053.43
2018-02-07T00:49:21.848Z,101059.92
2018-02-07T00:49:45.635Z,101057.28
2018-02-07T00:50:09.424Z,101058.58
2018-02-07T00:50:33.168Z,101055.52
2018-02-07T00:50:57.321Z,101056.38
2018-02-07T00:51:21.080Z,101055.47
2018-02-07T00:51:45.137Z,101054.10
2018-02-07T00:52:08.931Z,101054.53
2018-02-07T00:52:32.398Z,101058.88
2018-02-07T00:52:56.253Z,101056.27
2018-02-07T00:53:20.044Z,101052.77
2018-02-07T00:53:43.798Z,101054.08
2018-02-07T00:54:07.523Z,101052.77
2018-02-07T00:54:31.260Z,101048.42
2018-02-07T00:54:55.052Z,101051.91
2018-02-07T00:55:18.914Z,101054.53
2018-02-07T00:55:42.942Z,101058.03
2018-02-07T00:56:06.736Z,101049.80
2018-02-07T00:56:30.485Z,101050.71
2018-02-07T00:56:54.532Z,101049.85
2018-02-07T00:57:18.003Z,101045.07
2018-02-07T00:57:41.743Z,101050.73
2018-02-07T00:58:05.597Z,101052.06
2018-02-07T00:58:29.400Z,101059.03
2018-02-07T00:58:53.176Z,101046.83
2018-02-07T00:59:17.262Z,101055.59
2018-02-07T00:59:41.013Z,101048.62
2018-02-07T01:00:03.806Z,101049.95
2018-02-07T01:00:27.592Z,101053.45
2018-02-07T01:00:51.324Z,101049.94
2018-02-07T01:01:15.114Z,101055.62
2018-02-07T01:01:38.868Z,101057.38
2018-02-07T01:02:03.023Z,101062.19
2018-02-07T01:02:26.807Z,101053.05
2018-02-07T01:02:50.843Z,101055.23
2018-02-07T01:03:14.617Z,101054.81
2018-02-07T01:03:38.668Z,101055.32
2018-02-07T01:04:02.713Z,101055.34
2018-02-07T01:04:26.547Z,101058.81
2018-02-07T01:04:50.579Z,101060.15
2018-02-07T01:05:14.057Z,101059.27
2018-02-07T01:05:37.825Z,101063.65
2018-02-07T01:06:01.570Z,101066.27
2018-02-07T01:06:25.365Z,101067.55
2018-02-07T01:06:49.597Z,101067.55
2018-02-07T01:07:13.356Z,101064.50
2018-02-07T01:07:37.108Z,101065.39
2018-02-07T01:08:00.581Z,101062.34
2018-02-07T01:08:24.324Z,101069.31
2018-02-07T01:08:48.073Z,101070.62
2018-02-07T01:09:11.771Z,101069.31
2018-02-07T01:09:35.591Z,101069.33
2018-02-07T01:09:59.331Z,101069.33
2018-02-07T01:10:23.103Z,101072.83
2018-02-07T01:10:46.878Z,101073.31
2018-02-07T01:11:10.320Z,101081.56
2018-02-07T01:11:34.091Z,101071.52
2018-02-07T01:11:57.884Z,101072.40
2018-02-07T01:12:21.634Z,101073.77
2018-02-07T01:12:45.709Z,101067.67
2018-02-07T01:13:09.461Z,101067.67
2018-02-07T01:13:32.911Z,101072.50
2018-02-07T01:13:56.707Z,101072.50
2018-02-07T01:14:20.558Z,101070.84
2018-02-07T01:14:44.416Z,101075.23
2018-02-07T01:15:08.217Z,101082.65
2018-02-07T01:15:31.712Z,101071.77
2018-02-07T01:15:55.448Z,101070.48
2018-02-07T01:16:19.263Z,101069.23
2018-02-07T01:16:43.016Z,101065.34
2018-02-07T01:17:07.166Z,101067.98
2018-02-07T01:17:30.917Z,101074.97
2018-02-07T01:17:54.011Z,101069.80
2018-02-07T01:18:17.488Z,101075.92
2018-02-07T01:18:42.002Z,101074.66
2018-02-07T01:19:05.911Z,101077.28
2018-02-07T01:19:29.651Z,101080.78
2018-02-07T01:19:53.100Z,101076.42
2018-02-07T01:20:16.947Z,101076.91
2018-02-07T01:20:40.808Z,101078.24
2018-02-07T01:21:04.638Z,101074.77
2018-02-07T01:21:28.440Z,101080.00
2018-02-07T01:21:52.467Z,101073.05
2018-02-07T01:22:16.626Z,101079.59
2018-02-07T01:22:40.433Z,101070.89
2018-02-07T01:23:04.243Z,101074.42
2018-02-07T01:23:28.300Z,101075.75
2018-02-07T01:23:52.408Z,101071.83
2018-02-07T01:24:16.230Z,101075.33
2018-02-07T01:24:39.684Z,101071.83
2018-02-07T01:25:03.452Z,101075.30
2018-02-07T01:25:27.205Z,101075.73
2018-02-07T01:25:50.979Z,101070.89
2018-02-07T01:26:15.072Z,101073.91
2018-02-07T01:26:38.880Z,101077.84
2018-02-07T01:27:02.916Z,101079.55
2018-02-07T01:27:26.773Z,101069.09
2018-02-07T01:27:50.862Z,101076.48
2018-02-07T01:28:14.623Z,101080.35
2018-02-07T01:28:38.692Z,101079.42
2018-02-07T01:29:02.765Z,101072.86
2018-02-07T01:29:26.523Z,101076.73
2018-02-07T01:29:50.553Z,101081.06
2018-02-07T01:30:14.593Z,101075.40
2018-02-07T01:30:38.338Z,101081.91
2018-02-07T01:31:02.445Z,101081.91
2018-02-07T01:31:26.193Z,101079.73
2018-02-07T01:31:49.662Z,101084.08
2018-02-07T01:32:13.444Z,101086.70
2018-02-07T01:32:37.180Z,101085.81
2018-02-07T01:33:01.240Z,101076.23
2018-02-07T01:33:24.999Z,101079.70
2018-02-07T01:33:48.525Z,101078.77
2018-02-07T01:34:12.283Z,101081.88
2018-02-07T01:34:36.064Z,101083.57
2018-02-07T01:34:59.810Z,101082.27
2018-02-07T01:35:23.294Z,101079.20
2018-02-07T01:35:47.052Z,101081.39
2018-02-07T01:36:10.848Z,101084.41
2018-02-07T01:36:34.601Z,101081.36
2018-02-07T01:36:58.055Z,101081.79
2018-02-07T01:37:21.840Z,101080.94
2018-02-07T01:37:45.634Z,101084.83
2018-02-07T01:38:09.471Z,101082.67
2018-02-07T01:38:33.432Z,101082.65
2018-02-07T01:38:57.853Z,101085.23
2018-02-07T01:39:21.595Z,101084.38
2018-02-07T01:39:45.344Z,101083.08
2018-02-07T01:40:08.680Z,101080.91
2018-02-07T01:40:32.437Z,101090.06
2018-02-07T01:40:57.009Z,101080.05
2018-02-07T01:41:20.539Z,101085.72
2018-02-07T01:41:44.280Z,101082.24
2018-02-07T01:42:08.103Z,101079.65
2018-02-07T01:42:31.865Z,101082.27
2018-02-07T01:42:55.374Z,101081.44
2018-02-07T01:43:19.126Z,101078.83
2018-02-07T01:43:42.884Z,101085.39
2018-02-07T01:44:06.916Z,101080.61
2018-02-07T01:44:30.709Z,101081.94
2018-02-07T01:44:54.739Z,101083.25
2018-02-07T01:45:18.821Z,101084.58
2018-02-07T01:45:42.573Z,101086.37
2018-02-07T01:46:07.223Z,101084.20
2018-02-07T01:46:30.701Z,101085.98
2018-02-07T01:46:54.476Z,101080.33
2018-02-07T01:47:18.511Z,101081.20
2018-02-07T01:47:42.327Z,101086.49
2018-02-07T01:48:06.392Z,101086.89
2018-02-07T01:48:29.845Z,101089.51
2018-02-07T01:48:53.591Z,101088.25
2018-02-07T01:49:17.359Z,101081.73
2018-02-07T01:49:41.121Z,101085.23
2018-02-07T01:50:05.212Z,101084.80
2018-02-07T01:50:29.087Z,101084.37
2018-02-07T01:50:53.186Z,101086.14
2018-02-07T01:51:16.938Z,101083.52
2018-02-07T01:51:41.119Z,101092.25
2018-02-07T01:52:05.026Z,101087.07
2018-02-07T01:52:28.779Z,101087.95
2018-02-07T01:52:52.856Z,101088.41
2018-02-07T01:53:16.601Z,101091.89
2018-02-07T01:53:40.192Z,101092.33
2018-02-07T01:54:03.933Z,101089.28
2018-02-07T01:54:27.738Z,101095.39
2018-02-07T01:54:51.536Z,101083.19
2018-02-07T01:55:15.602Z,101086.23
2018-02-07T01:55:39.458Z,101087.55
2018-02-07T01:56:03.700Z,101084.05
2018-02-07T01:56:27.445Z,101084.91
2018-02-07T01:56:51.225Z,101081.84
2018-02-07T01:57:14.705Z,101087.87
2018-02-07T01:57:38.451Z,101087.87
2018-02-07T01:58:02.204Z,101090.06
2018-02-07T01:58:25.693Z,101088.33
2018-02-07T01:58:49.476Z,101086.14
2018-02-07T01:59:13.265Z,101087.42
2018-02-07T01:59:37.028Z,101085.69
2018-02-07T02:00:00.485Z,101088.73
2018-02-07T02:00:24.222Z,101088.30
2018-02-07T02:00:47.957Z,101085.21
2018-02-07T02:01:11.717Z,101081.73
2018-02-07T02:01:35.915Z,101089.11
2018-02-07T02:02:00.171Z,101090.80
2018-02-07T02:02:23.960Z,101085.98
2018-02-07T02:02:47.699Z,101083.80
2018-02-07T02:03:11.507Z,101088.13
2018-02-07T02:03:35.573Z,101087.27
2018-02-07T02:03:59.051Z,101089.44
2018-02-07T02:04:22.804Z,101084.64
2018-02-07T02:04:46.555Z,101086.37
2018-02-07T02:05:10.400Z,101088.98
2018-02-07T02:05:34.153Z,101089.36
2018-02-07T02:05:57.605Z,101086.37
2018-02-07T02:06:21.355Z,101088.50
2018-02-07T02:06:44.942Z,101088.56
2018-02-07T02:07:08.725Z,101093.34
2018-02-07T02:07:32.477Z,101086.80
2018-02-07T02:07:56.276Z,101095.98
2018-02-07T02:08:20.119Z,101098.62
2018-02-07T02:08:43.893Z,101091.65
2018-02-07T02:09:07.927Z,101088.63
2018-02-07T02:09:31.721Z,101086.95
2018-02-07T02:09:55.766Z,101091.73
2018-02-07T02:10:19.314Z,101089.59
2018-02-07T02:10:43.116Z,101093.96
2018-02-07T02:11:06.868Z,101091.34
2018-02-07T02:11:30.600Z,101092.23
2018-02-07T02:11:54.723Z,101089.62
2018-02-07T02:12:18.496Z,101087.89
2018-02-07T02:12:42.537Z,101090.56
2018-02-07T02:13:06.316Z,101088.41
2018-02-07T02:13:29.804Z,101089.73
2018-02-07T02:13:53.557Z,101088.00
2018-02-07T02:14:17.291Z,101089.33
2018-02-07T02:14:41.316Z,101090.20
2018-02-07T02:15:05.079Z,101082.89
2018-02-07T02:15:28.546Z,101083.77
2018-02-07T02:15:52.296Z,101087.28
2018-02-07T02:16:16.088Z,101082.56
2018-02-07T02:16:39.533Z,101082.58
2018-02-07T02:17:03.352Z,101080.42
2018-02-07T02:17:27.133Z,101083.09
2018-02-07T02:17:50.939Z,101084.40
2018-02-07T02:18:14.703Z,101092.27
2018-02-07T02:18:38.200Z,101081.83
2018-02-07T02:19:01.986Z,101089.70
2018-02-07T02:19:25.765Z,101084.92
2018-02-07T02:19:49.586Z,101087.16
2018-02-07T02:20:13.611Z,101083.26
2018-02-07T02:20:37.159Z,101081.97
2018-02-07T02:21:00.896Z,101086.34
2018-02-07T02:21:24.644Z,101081.19
2018-02-07T02:21:48.551Z,101081.19
2018-02-07T02:22:12.349Z,101080.77
2018-02-07T02:22:36.671Z,101084.27
2018-02-07T02:23:00.408Z,101080.34
2018-02-07T02:23:24.221Z,101079.05
2018-02-07T02:23:48.317Z,101075.58
2018-02-07T02:24:12.104Z,101079.50
2018-02-07T02:24:36.154Z,101079.12
2018-02-07T02:24:59.951Z,101078.27
2018-02-07T02:25:24.000Z,101079.16
2018-02-07T02:25:47.447Z,101076.11
2018-02-07T02:26:11.201Z,101080.05
2018-02-07T02:26:34.929Z,101074.83
2018-02-07T02:26:58.520Z,101080.50
2018-02-07T02:27:22.256Z,101075.27
2018-02-07T02:27:46.060Z,101072.66
2018-02-07T02:28:09.834Z,101074.84
2018-02-07T02:28:33.685Z,101072.23
2018-02-07T02:28:57.521Z,101071.35
2018-02-07T02:29:21.549Z,101073.49
2018-02-07T02:29:45.373Z,101067.83
2018-02-07T02:30:09.154Z,101070.00
2018-02-07T02:30:32.897Z,101074.37
2018-02-07T02:30:56.640Z,101089.11
2018-02-07T02:31:20.400Z,101072.53
2018-02-07T02:31:44.175Z,101075.13
2018-02-07T02:32:08.207Z,101076.44
2018-02-07T02:32:32.027Z,101076.84
2018-02-07T02:32:56.130Z,101073.77
2018-02-07T02:33:19.722Z,101079.81
2018-02-07T02:33:43.457Z,101071.94
2018-02-07T02:34:07.322Z,101077.15
2018-02-07T02:34:31.092Z,101079.31
2018-02-07T02:34:54.834Z,101072.33
2018-02-07T02:35:18.595Z,101072.70
2018-02-07T02:35:41.369Z,101074.86
2018-02-07T02:36:16.276Z,101078.33
2018-02-07T02:36:41.288Z,101074.81
2018-02-07T02:37:04.833Z,101079.11
2018-02-07T02:37:28.647Z,101079.97
2018-02-07T02:37:52.423Z,101077.33
2018-02-07T02:38:16.472Z,101076.00
2018-02-07T02:38:40.229Z,101075.12
2018-02-07T02:39:03.693Z,101079.44
2018-02-07T02:39:27.440Z,101075.95
2018-02-07T02:39:51.206Z,101077.23
2018-02-07T02:40:14.958Z,101082.87
2018-02-07T02:40:38.700Z,101085.03
2018-02-07T02:41:02.491Z,101083.22
2018-02-07T02:41:26.244Z,101078.84
2018-02-07T02:41:50.014Z,101078.39
2018-02-07T02:42:13.856Z,101082.72
2018-02-07T02:42:37.895Z,101080.53
2018-02-07T02:43:01.352Z,101080.53
2018-02-07T02:43:25.108Z,101083.58
2018-02-07T02:43:48.875Z,101078.34
2018-02-07T02:44:12.737Z,101082.21
2018-02-07T02:44:36.482Z,101080.45
2018-02-07T02:44:59.936Z,101079.14
2018-02-07T02:45:23.757Z,101079.12
2018-02-07T02:45:47.546Z,101081.31
2018-02-07T02:46:11.298Z,101085.66
2018-02-07T02:46:34.741Z,101080.86
2018-02-07T02:46:58.607Z,101080.43
2018-02-07T02:47:22.371Z,101081.73
2018-02-07T02:47:46.137Z,101079.12
2018-02-07T02:48:09.708Z,101076.05
2018-02-07T02:48:33.485Z,101076.48
2018-02-07T02:48:57.243Z,101074.75
2018-02-07T02:49:20.996Z,101076.05
2018-02-07T02:49:45.099Z,101074.31
2018-02-07T02:50:08.857Z,101072.58
2018-02-07T02:50:32.913Z,101072.60
2018-02-07T02:50:56.999Z,101079.57
2018-02-07T02:51:20.762Z,101074.77
2018-02-07T02:51:44.796Z,101074.34
2018-02-07T02:52:08.833Z,101077.41
2018-02-07T02:52:32.613Z,101070.87
2018-02-07T02:52:56.663Z,101079.14
2018-02-07T02:53:20.136Z,101076.95
2018-02-07T02:53:43.913Z,101070.87
2018-02-07T02:54:07.708Z,101075.22
2018-02-07T02:54:31.457Z,101071.32
2018-02-07T02:54:55.531Z,101077.41
2018-02-07T02:55:19.326Z,101070.01
2018-02-07T02:55:43.353Z,101073.91
2018-02-07T02:56:07.262Z,101076.98
2018-02-07T02:56:31.317Z,101070.52
2018-02-07T02:56:55.077Z,101079.67
2018-02-07T02:57:19.112Z,101068.35
2018-02-07T02:57:43.136Z,101072.73
2018-02-07T02:58:06.949Z,101073.61
2018-02-07T02:58:30.416Z,101069.23
2018-02-07T02:58:54.297Z,101070.11
2018-02-07T02:59:18.157Z,101070.99
2018-02-07T02:59:41.882Z,101073.16
2018-02-07T03:00:04.954Z,101070.09
2018-02-07T03:00:28.737Z,101070.95
2018-02-07T03:00:52.805Z,101071.80
2018-02-07T03:01:16.205Z,101068.33
2018-02-07T03:01:40.085Z,101071.80
2018-02-07T03:02:03.846Z,101073.11
2018-02-07T03:02:27.590Z,101071.32
2018-02-07T03:02:51.332Z,101073.48
2018-02-07T03:03:14.776Z,101069.98
2018-02-07T03:03:38.504Z,101070.42
2018-02-07T03:04:02.523Z,101073.89
2018-02-07T03:04:26.355Z,101068.63
2018-02-07T03:04:50.135Z,101066.45
2018-02-07T03:05:14.177Z,101064.66
2018-02-07T03:05:38.201Z,101068.10
2018-02-07T03:06:02.003Z,101067.20
2018-02-07T03:06:25.540Z,101065.44
2018-02-07T03:06:49.375Z,101062.34
2018-02-07T03:07:13.205Z,101063.59
2018-02-07T03:07:36.630Z,101064.48
2018-02-07T03:08:00.401Z,101066.22
2018-02-07T03:08:24.153Z,101061.41
2018-02-07T03:08:47.900Z,101061.84
2018-02-07T03:09:11.666Z,101067.50
2018-02-07T03:09:35.689Z,101060.11
2018-02-07T03:09:59.127Z,101066.19
2018-02-07T03:10:22.894Z,101064.89
2018-02-07T03:10:46.643Z,101059.22
2018-02-07T03:11:10.436Z,101062.70
2018-02-07T03:11:34.490Z,101064.89
2018-02-07T03:11:58.254Z,101061.39
2018-02-07T03:12:22.317Z,101064.44
2018-02-07T03:12:46.352Z,101071.80
2018-02-07T03:13:10.097Z,101066.17
2018-02-07T03:13:33.551Z,101065.69
2018-02-07T03:13:57.328Z,101062.27
2018-02-07T03:14:21.096Z,101067.95
2018-02-07T03:14:44.870Z,101065.34
2018-02-07T03:15:08.338Z,101069.73
2018-02-07T03:15:32.113Z,101065.44
2018-02-07T03:15:55.856Z,101065.89
2018-02-07T03:16:19.884Z,101068.51
2018-02-07T03:16:43.638Z,101064.16
2018-02-07T03:17:07.096Z,101058.95
2018-02-07T03:17:30.881Z,101063.75
2018-02-07T03:17:54.668Z,101058.97
2018-02-07T03:18:18.159Z,101059.40
2018-02-07T03:18:41.903Z,101063.32
2018-02-07T03:19:05.692Z,101064.20
2018-02-07T03:19:29.538Z,101064.20
2018-02-07T03:19:53.293Z,101064.66
2018-02-07T03:20:16.737Z,101063.32
2018-02-07T03:20:40.509Z,101061.99
2018-02-07T03:21:04.247Z,101067.66
2018-02-07T03:21:28.276Z,101063.75
2018-02-07T03:21:52.029Z,101070.72
2018-02-07T03:22:15.721Z,101064.20
2018-02-07T03:22:39.540Z,101068.10
2018-02-07T03:23:03.343Z,101065.91
2018-02-07T03:23:27.116Z,101065.52
2018-02-07T03:23:50.862Z,101067.22
2018-02-07T03:24:16.173Z,101063.70
2018-02-07T03:24:39.953Z,101068.08
2018-02-07T03:25:03.773Z,101070.24
2018-02-07T03:25:27.768Z,101070.19
2018-02-07T03:25:51.519Z,101067.17
2018-02-07T03:26:15.264Z,101070.67
2018-02-07T03:26:39.056Z,101074.11
2018-02-07T03:27:02.798Z,101066.27
2018-02-07T03:27:26.661Z,101071.50
2018-02-07T03:27:50.424Z,101073.66
2018-02-07T03:28:14.460Z,101076.25
2018-02-07T03:28:38.210Z,101081.06
2018-02-07T03:29:01.671Z,101073.19
2018-02-07T03:29:25.428Z,101063.59
2018-02-07T03:29:49.232Z,101070.59
2018-02-07T03:30:13.250Z,101071.45
2018-02-07T03:30:37.028Z,101071.88
2018-02-07T03:31:00.474Z,101068.38
2018-02-07T03:31:24.208Z,101074.49
2018-02-07T03:31:47.964Z,101071.88
2018-02-07T03:32:11.980Z,101074.92
2018-02-07T03:32:35.771Z,101075.78
2018-02-07T03:32:59.243Z,101073.59
2018-02-07T03:33:22.993Z,101076.20
2018-02-07T03:33:46.739Z,101069.67
2018-02-07T03:34:10.763Z,101077.99
2018-02-07T03:34:34.538Z,101075.40
2018-02-07T03:34:58.625Z,101077.59
2018-02-07T03:35:22.381Z,101079.34
2018-02-07T03:35:45.928Z,101081.16
2018-02-07T03:36:09.697Z,101075.55
2018-02-07T03:36:33.444Z,101075.60
2018-02-07T03:36:57.201Z,101076.94
2018-02-07T03:37:20.651Z,101074.79
2018-02-07T03:37:44.590Z,101075.24
2018-02-07T03:38:08.370Z,101079.67
2018-02-07T03:38:32.125Z,101077.53
2018-02-07T03:38:56.156Z,101078.44
2018-02-07T03:39:20.052Z,101074.56
2018-02-07T03:39:43.508Z,101074.14
2018-02-07T03:40:08.137Z,101081.13
2018-02-07T03:40:31.931Z,101070.23
2018-02-07T03:40:55.525Z,101074.61
2018-02-07T03:41:19.259Z,101079.84
2018-02-07T03:41:43.045Z,101079.84
2018-02-07T03:42:07.640Z,101079.84
2018-02-07T03:42:31.123Z,101080.25
2018-02-07T03:42:54.866Z,101076.30
2018-02-07T03:43:18.609Z,101079.38
2018-02-07T03:43:42.548Z,101082.79
2018-02-07T03:44:06.321Z,101083.67
2018-02-07T03:44:30.388Z,101085.03
2018-02-07T03:44:54.445Z,101085.50
2018-02-07T03:45:18.254Z,101087.28
2018-02-07T03:45:42.345Z,101090.38
2018-02-07T03:46:06.092Z,101085.17
2018-02-07T03:46:30.204Z,101081.68
2018-02-07T03:46:53.958Z,101081.70
2018-02-07T03:47:17.547Z,101084.30
2018-02-07T03:47:41.332Z,101084.75
2018-02-07T03:48:05.084Z,101082.97
2018-02-07T03:48:28.831Z,101089.08
2018-02-07T03:48:52.880Z,101087.77
2018-02-07T03:49:16.669Z,101082.97
2018-02-07T03:49:40.748Z,101087.77
2018-02-07T03:50:04.800Z,101078.64
2018-02-07T03:50:28.644Z,101088.24
2018-02-07T03:50:52.700Z,101091.73
2018-02-07T03:51:16.452Z,101079.56
2018-02-07T03:51:39.906Z,101086.59
2018-02-07T03:52:03.701Z,101085.70
2018-02-07T03:52:27.560Z,101083.99
2018-02-07T03:52:51.313Z,101086.61
2018-02-07T03:53:15.369Z,101084.42
2018-02-07T03:53:39.116Z,101083.55
2018-02-07T03:54:02.629Z,101082.23
2018-02-07T03:54:26.424Z,101083.97
2018-02-07T03:54:50.185Z,101078.73
2018-02-07T03:55:13.935Z,101077.88
2018-02-07T03:55:37.446Z,101082.66
2018-02-07T03:56:01.211Z,101082.23
2018-02-07T03:56:24.978Z,101081.37
2018-02-07T03:56:48.769Z,101086.63
2018-02-07T03:57:12.799Z,101082.70
2018-02-07T03:57:36.865Z,101085.77
2018-02-07T03:58:00.615Z,101078.80
2018-02-07T03:58:24.166Z,101083.59
2018-02-07T03:58:47.927Z,101082.30
2018-02-07T03:59:11.752Z,101079.74
2018-02-07T03:59:35.536Z,101084.09
2018-02-07T03:59:59.578Z,101076.64
2018-02-07T04:00:23.355Z,101079.66
2018-02-07T04:00:47.406Z,101080.95
2018-02-07T04:01:11.423Z,101080.06
2018-02-07T04:01:35.155Z,101080.92
2018-02-07T04:01:58.956Z,101079.62
2018-02-07T04:02:22.454Z,101086.16
2018-02-07T04:02:46.392Z,101080.50
2018-02-07T04:03:10.152Z,101080.50
2018-02-07T04:03:33.930Z,101082.26
2018-02-07T04:03:57.160Z,101078.80
2018-02-07T04:04:20.933Z,101084.02
2018-02-07T04:04:45.022Z,101084.04
2018-02-07T04:05:08.412Z,101079.69
2018-02-07T04:05:32.180Z,101080.17
2018-02-07T04:05:56.001Z,101078.86
2018-02-07T04:06:19.744Z,101081.48
2018-02-07T04:06:43.818Z,101074.94
2018-02-07T04:07:07.564Z,101075.34
2018-02-07T04:07:31.690Z,101076.64
2018-02-07T04:07:55.441Z,101078.86
2018-02-07T04:08:19.476Z,101080.17
2018-02-07T04:08:43.540Z,101074.51
2018-02-07T04:09:07.303Z,101080.17
2018-02-07T04:09:31.444Z,101082.36
2018-02-07T04:09:55.256Z,101078.88
2018-02-07T04:10:19.279Z,101075.41
2018-02-07T04:10:43.017Z,101074.98
2018-02-07T04:11:06.770Z,101073.70
2018-02-07T04:11:30.554Z,101078.48
2018-02-07T04:11:54.451Z,101082.85
2018-02-07T04:12:18.276Z,101082.88
2018-02-07T04:12:42.021Z,101081.56
2018-02-07T04:13:05.822Z,101079.86
2018-02-07T04:13:29.887Z,101081.63
2018-02-07T04:13:53.692Z,101079.91
2018-02-07T04:14:17.165Z,101082.07
2018-02-07T04:14:40.944Z,101081.64
2018-02-07T04:15:04.693Z,101083.83
2018-02-07T04:15:28.472Z,101080.38
2018-02-07T04:15:52.528Z,101084.30
2018-02-07T04:16:16.593Z,101083.00
2018-02-07T04:16:40.465Z,101083.00
2018-02-07T04:17:04.238Z,101081.23
2018-02-07T04:17:27.689Z,101079.05
2018-02-07T04:17:51.484Z,101082.95
2018-02-07T04:18:15.249Z,101082.50
2018-02-07T04:18:38.728Z,101085.11
2018-02-07T04:19:02.528Z,101089.02
2018-02-07T04:19:26.277Z,101085.09
2018-02-07T04:19:50.128Z,101077.70
2018-02-07T04:20:13.873Z,101086.41
2018-02-07T04:20:37.349Z,101089.02
2018-02-07T04:21:01.117Z,101083.36
2018-02-07T04:21:24.887Z,101081.19
2018-02-07T04:21:48.687Z,101082.07
2018-02-07T04:22:12.717Z,101086.02
2018-02-07T04:22:36.847Z,101083.85
2018-02-07T04:23:00.603Z,101089.53
2018-02-07T04:23:24.676Z,101088.23
2018-02-07T04:23:48.465Z,101083.48
2018-02-07T04:24:12.516Z,101086.09
2018-02-07T04:24:36.304Z,101087.41
2018-02-07T04:24:59.748Z,101090.92
2018-02-07T04:25:23.496Z,101087.00
2018-02-07T04:25:47.231Z,101080.91
2018-02-07T04:26:11.329Z,101089.63
2018-02-07T04:26:35.136Z,101087.02
2018-02-07T04:26:59.172Z,101087.05
2018-02-07T04:27:22.631Z,101087.49
2018-02-07T04:27:46.370Z,101095.39
2018-02-07T04:28:10.232Z,101089.75
2018-02-07T04:28:33.969Z,101085.86
2018-02-07T04:28:57.440Z,101085.88
2018-02-07T04:29:21.193Z,101089.02
2018-02-07T04:29:44.969Z,101085.09
2018-02-07T04:30:08.745Z,101084.69
2018-02-07T04:30:32.861Z,101091.71
2018-02-07T04:30:56.597Z,101094.34
2018-02-07T04:31:20.680Z,101088.69
2018-02-07T04:31:44.460Z,101089.14